Flight Track Log - Related Links

Times and Time Zones

All times are in EDT time to prevent confusion due to time zone crossing. See the N6AR flight status page for this flight to view local times or setup timezone preferences in your user account.

Time Position Orientation Groundspeed Altitude Reporting Facility
EDT Latitude Longitude Course Direction KTS MPH feet Rate Location/Type
Sat 07:23:21 PM 39.5672 -84.1922 55° Northeast 137 158 2,700  Level Indianapolis Center
Sat 07:23:51 PM 39.5794 -84.1694 55° Northeast 150 173 3,200 764 Climbing Indianapolis Center
Sat 07:25:11 PM 39.6064 -84.1142 58° Northeast 145 167 4,100 844 Climbing Indianapolis Center
Sat 07:25:59 PM 39.6292 -84.0731 54° Northeast 153 176 5,000 1,000 Climbing Indianapolis Center
Sat 07:27:05 PM 39.6497 -84.0214 63° Northeast 146 168 6,000 898 Climbing Indianapolis Center
Sat 07:28:06 PM 39.6661 -83.9747 65° Northeast 145 167 6,900 496 Climbing Indianapolis Center
Sat 07:29:06 PM 39.6911 -83.9211 59° Northeast 173 199 7,000 47 Climbing Indianapolis Center
Sat 07:30:15 PM 39.7167 -83.8650 59° Northeast 171 197 7,000  Level Indianapolis Center
Sat 07:30:55 PM 39.7367 -83.8183 61° Northeast 182 209 7,000  Level Indianapolis Center
Sat 07:31:16 PM 39.7408 -83.8075 63° Northeast 178 205 7,000 -90 Level Indianapolis Center
Sat 07:32:02 PM 39.7642 -83.7567 59° Northeast 182 209 6,900 -98 Descending Indianapolis Center
Sat 07:32:17 PM 39.7658 -83.7506 70° East 179 206 6,900 79 Level Indianapolis Center
Sat 07:33:18 PM 39.7922 -83.6914 60° Northeast 183 211 7,000 57 Climbing Indianapolis Center
Sat 07:34:03 PM 39.8131 -83.6381 63° Northeast 189 217 7,000  Level Indianapolis Center
Sat 07:34:19 PM 39.8164 -83.6322 53° Northeast 184 212 7,000  Level Indianapolis Center
Sat 07:34:58 PM 39.8378 -83.5839 60° Northeast 200 230 7,000  Level Indianapolis Center
Sat 07:35:20 PM 39.8419 -83.5711 67° East 188 216 7,000  Level Indianapolis Center
Sat 07:36:05 PM 39.8675 -83.5225 56° Northeast 187 215 7,000  Level Indianapolis Center
Sat 07:36:21 PM 39.8719 -83.5133 58° Northeast 188 216 7,000  Level Indianapolis Center
Sat 07:36:59 PM 39.8922 -83.4683 60° Northeast 190 219 7,000  Level Indianapolis Center
Sat 07:37:21 PM 39.8997 -83.4519 59° Northeast 189 217 7,000  Level Indianapolis Center
Sat 07:38:00 PM 39.9156 -83.4086 65° Northeast 186 214 7,000  Level Indianapolis Center
Sat 07:38:22 PM 39.9233 -83.3900 61° Northeast 188 216 7,000  Level Indianapolis Center
Sat 07:39:01 PM 39.9386 -83.3489 64° Northeast 182 209 7,000  Level Indianapolis Center
Sat 07:39:23 PM 39.9478 -83.3333 52° Northeast 183 211 7,000 -111 Level Indianapolis Center
Sat 07:39:55 PM 39.9633 -83.2975 60° Northeast 182 209 6,900  Descending Indianapolis Center
Sat 07:40:24 PM 39.9736 -83.2761 58° Northeast 181 208 7,000 98 Climbing Indianapolis Center
Sat 07:40:56 PM 39.9881 -83.2433 60° Northeast 176 203 7,000 -98 Level Indianapolis Center
Sat 07:41:25 PM 39.9989 -83.2219 57° Northeast 176 203 6,900 -91 Descending Indianapolis Center
Sat 07:42:02 PM 40.0153 -83.1811 62° Northeast 176 203 6,900 100 Level Indianapolis Center
Sat 07:42:25 PM 40.0233 -83.1653 56° Northeast 176 203 7,000 122 Climbing Indianapolis Center
Sat 07:42:51 PM 40.0331 -83.1369 66° East 172 198 7,000 -98 Level Indianapolis Center
Sat 07:43:26 PM 40.0436 -83.1075 65° Northeast 175 201 6,900 100 Descending Indianapolis Center
Sat 07:43:51 PM 40.0517 -83.0792 70° East 174 200 7,100  Climbing Indianapolis Center
Sat 07:44:27 PM 40.0631 -83.0494 63° Northeast 174 200 6,900 -98 Descending Indianapolis Center
Sat 07:44:52 PM 40.0742 -83.0247 60° Northeast 174 200 7,000 98 Climbing Indianapolis Center
Sat 07:45:28 PM 40.0883 -82.9931 60° Northeast 176 203 7,000 -90 Level Indianapolis Center
Sat 07:45:59 PM 40.1039 -82.9600 58° Northeast 178 205 6,900  Descending Indianapolis Center
Sat 07:46:29 PM 40.1147 -82.9372 58° Northeast 179 206 7,000 100 Climbing Indianapolis Center
Sat 07:46:59 PM 40.1306 -82.9058 57° Northeast 178 205 7,000  Level Indianapolis Center
Sat 07:47:30 PM 40.1422 -82.8836 56° Northeast 178 205 7,000  Level Indianapolis Center
Sat 07:47:54 PM 40.1528 -82.8536 65° Northeast 180 207 7,000  Level Indianapolis Center
Sat 07:48:30 PM 40.1642 -82.8247 63° Northeast 179 206 7,000  Level Indianapolis Center
Sat 07:48:55 PM 40.1756 -82.7964 62° Northeast 180 207 7,000  Level Indianapolis Center
Sat 07:49:31 PM 40.1897 -82.7669 58° Northeast 181 208 7,000 -100 Level Indianapolis Center
Sat 07:49:55 PM 40.2044 -82.7394 55° Northeast 184 212 6,900  Descending Indianapolis Center
Sat 07:50:32 PM 40.2178 -82.7111 58° Northeast 183 211 7,000 98 Climbing Indianapolis Center
Sat 07:50:56 PM 40.2289 -82.6850 61° Northeast 181 208 7,000  Level Indianapolis Center
Sat 07:51:33 PM 40.2403 -82.6519 66° East 180 207 7,000  Level Indianapolis Center
Sat 07:51:56 PM 40.2494 -82.6244 66° East 181 208 7,000 -98 Level Indianapolis Center
Sat 07:52:34 PM 40.2633 -82.5936 59° Northeast 181 208 6,900  Descending Indianapolis Center
Sat 07:52:57 PM 40.2742 -82.5642 64° Northeast 185 213 7,000 98 Climbing Indianapolis Center
Sat 07:53:35 PM 40.2908 -82.5231 62° Northeast 185 213 7,000  Level Indianapolis Center
Sat 07:53:58 PM 40.2989 -82.5069 57° Northeast 185 213 7,000  Level Indianapolis Center
Sat 07:54:35 PM 40.3153 -82.4642 63° Northeast 184 212 7,000  Level Indianapolis Center
Sat 07:54:58 PM 40.3261 -82.4414 58° Northeast 186 214 7,000  Level Indianapolis Center
Sat 07:55:36 PM 40.3408 -82.4036 63° Northeast 187 215 7,000  Level Indianapolis Center
Sat 07:56:37 PM 40.3686 -82.3442 58° Northeast 190 219 7,000  Level Indianapolis Center
Sat 07:57:38 PM 40.3953 -82.2847 59° Northeast 188 216 7,000  Level Indianapolis Center
Sat 07:58:39 PM 40.4203 -82.2222 62° Northeast 190 219 7,000  Level Indianapolis Center
Sat 07:59:40 PM 40.4458 -82.1619 61° Northeast 188 216 7,000  Level Indianapolis Center
Sat 08:00:41 PM 40.4694 -82.0992 64° Northeast 190 219 7,000  Level Indianapolis Center
Sat 08:01:42 PM 40.4936 -82.0419 61° Northeast 182 209 7,000  Level Indianapolis Center
Sat 08:02:42 PM 40.5169 -81.9853 62° Northeast 176 203 7,000 -50 Level Indianapolis Center
Sat 08:03:43 PM 40.5419 -81.9278 60° Northeast 179 206 6,900  Descending Indianapolis Center
Sat 08:04:44 PM 40.5647 -81.8703 62° Northeast 178 205 7,000  Climbing Indianapolis Center
Sat 08:05:45 PM 40.5908 -81.8144 58° Northeast 179 206 6,900 -49 Descending Indianapolis Center
Sat 08:06:46 PM 40.6161 -81.7564 60° Northeast 181 208 6,900 50 Level Indianapolis Center
Sat 08:07:46 PM 40.6383 -81.6961 64° Northeast 181 208 7,000 50 Climbing Indianapolis Center
Sat 08:08:47 PM 40.6617 -81.6386 62° Northeast 179 206 7,000  Level Indianapolis Center
Sat 08:09:48 PM 40.6858 -81.5783 62° Northeast 184 212 7,000 -49 Level Indianapolis Center
Sat 08:10:49 PM 40.7078 -81.5161 65° Northeast 187 215 6,900  Descending Indianapolis Center
Sat 08:11:50 PM 40.7322 -81.4558 62° Northeast 187 215 7,000 49 Climbing Indianapolis Center
Sat 08:12:51 PM 40.7528 -81.3944 66° East 185 213 7,000  Level Indianapolis Center
Sat 08:13:52 PM 40.7692 -81.3303 71° East 185 213 7,000  Level Indianapolis Center
Sat 08:14:52 PM 40.7875 -81.2683 69° East 182 209 7,000  Level Indianapolis Center

Login

Don't have an account? Register now (free) for customized features, flight alerts, and more!